Maremka — ONIN — position and weather

sailwx.info

Track history (hours):
 
Tides and Currents Weather Stations Pressure Air Temp Water Temp Dewpoint Dewpoint Depression Visibility Wind Speed Wind Dir Waves Ship Positions

Maremka

Last reported at 2018-Jun-24 22:30 UTC. Time now 2018-Jun-24 22:37 UTC.
Position N 51°21' E 004°17'.

Length 83 m; draft 5 m.

Type: Ship. MMSI: 205688000.

Date/timePositionNaut miles runAvg speedWind from/ knotsBaromVisibWave heightAir tempDewpointWater temp
2018-Jun-24 22:30N 51°21' E 004°17'0 0.0
2018-Jun-24 22:00N 51°21' E 004°17'2 3.6
2018-Jun-24 21:30N 51°21' E 004°14'3 7.0
2018-Jun-24 21:00N 51°23' E 004°09'5 9.3
2018-Jun-24 20:30N 51°24' E 004°02'3 5.9
2018-Jun-24 20:00N 51°25' E 003°58'510.0
2018-Jun-24 19:30N 51°21' E 003°52'5 9.6
2018-Jun-24 19:00N 51°22' E 003°45'5 9.7
2018-Jun-24 18:30N 51°25' E 003°38'4 7.7
2018-Jun-24 18:00N 51°25' E 003°32'4 8.6
2018-Jun-24 17:30N 51°25' E 003°25'4 7.9
2018-Jun-24 17:00N 51°24' E 003°19'4 7.1
2018-Jun-24 16:30N 51°23' E 003°14'4 7.2
2018-Jun-24 16:00N 51°22' E 003°08'4 7.3
2018-Jun-24 15:30N 51°22' E 003°02'4 7.5
2018-Jun-24 15:00N 51°21' E 002°56'4 8.0
2018-Jun-24 14:30N 51°22' E 002°50'4 7.5
2018-Jun-24 13:59N 51°22' E 002°44'3 6.6
2018-Jun-24 13:29N 51°22' E 002°38'3 6.2
2018-Jun-24 13:00N 51°22' E 002°34'3 5.8
2018-Jun-24 12:29N 51°22' E 002°29'3 6.0
2018-Jun-24 12:00N 51°21' E 002°25'4 6.5
2018-Jun-24 11:28N 51°19' E 002°20'4 9.0
2018-Jun-24 11:00N 51°17' E 002°14'510.5
2018-Jun-24 10:30N 51°14' E 002°07'510.5
2018-Jun-24 10:00N 51°12' E 001°60'510.7
2018-Jun-24 09:30N 51°09' E 001°52'510.9
2018-Jun-24 09:00N 51°06' E 001°45'611.1
2018-Jun-24 08:30N 51°02' E 001°40'611.0
2018-Jun-24 08:00N 50°57' E 001°34'510.7
2018-Jun-24 07:30N 50°53' E 001°29'510.1
2018-Jun-24 07:00N 50°48' E 001°27'5 9.5
2018-Jun-24 06:30N 50°44' E 001°24'5 9.3
2018-Jun-24 06:00N 50°40' E 001°19'5 9.4
2018-Jun-24 05:30N 50°37' E 001°14'5 9.2
2018-Jun-24 05:00N 50°34' E 001°09'4 8.9
2018-Jun-24 04:30N 50°30' E 001°04'4 8.6
2018-Jun-24 04:00N 50°28' E 000°59'4 8.6
2018-Jun-24 03:30N 50°26' E 000°53'4 8.6
2018-Jun-24 03:00N 50°25' E 000°46'4 8.4
2018-Jun-24 02:30N 50°24' E 000°40'4 8.2
2018-Jun-24 02:00N 50°23' E 000°34'6 8.0
2018-Jun-24 01:12N 50°21' E 000°24'1 7.8
2018-Jun-24 01:00N 50°21' E 000°22'4 7.8
2018-Jun-24 00:30N 50°20' E 000°16'4 7.8
2018-Jun-24 00:00N 50°19' E 000°10'4 7.7
2018-Jun-23 23:30N 50°17' E 000°04'4 7.9
2018-Jun-23 23:00N 50°14' E 000°00'4 8.1
2018-Jun-23 22:30N 50°11' W 000°04'4 8.2
2018-Jun-23 22:00N 50°08' W 000°07'4 8.5
2018-Jun-23 21:30N 50°04' W 000°10'4 8.7
2018-Jun-23 21:00N 49°60' W 000°12'4 8.8
2018-Jun-23 20:30N 49°55' W 000°14'4 9.0
2018-Jun-23 20:00N 49°51' W 000°17'5 9.1
2018-Jun-23 19:30N 49°47' W 000°21'5 9.3
2018-Jun-23 19:00N 49°43' W 000°23'4 8.8
2018-Jun-23 18:30N 49°39' W 000°23'4 8.8
2018-Jun-23 18:00N 49°34' W 000°22'4 8.1
2018-Jun-23 17:30N 49°33' W 000°17'4 8.3
2018-Jun-23 17:00N 49°31' W 000°11'4 8.6
2018-Jun-23 16:30N 49°29' W 000°05'4 8.7
2018-Jun-23 16:00N 49°27' E 000°01'4 7.6
2018-Jun-23 15:30N 49°26' E 000°07'4 7.3
2018-Jun-23 15:00N 49°26' E 000°12'4 8.7
2018-Jun-23 14:30N 49°26' E 000°19'510.3
2018-Jun-23 14:00N 49°28' E 000°26'4 8.6
2018-Jun-23 13:30N 49°27' E 000°33'5 9.0
2018-Jun-23 13:00N 49°28' E 000°40'5 9.3
2018-Jun-23 12:30N 49°31' E 000°45'510.1
2018-Jun-23 12:00N 49°27' E 000°49'4 7.3
2018-Jun-23 11:31N 49°24' E 000°52'510.1
2018-Jun-23 11:00N 49°29' E 000°53'4 8.1
2018-Jun-23 10:30N 49°25' E 000°56'4 8.7
2018-Jun-23 10:01N 49°21' E 000°56'4 7.7
2018-Jun-23 09:30N 49°24' E 001°01'3 6.8
2018-Jun-23 09:00N 49°27' E 001°03'0 0.0
2018-Jun-23 08:29N 49°27' E 001°03'0 0.0
2018-Jun-23 07:59N 49°27' E 001°03'0 0.0
2018-Jun-23 07:29N 49°27' E 001°03'0 0.0
2018-Jun-23 06:59N 49°27' E 001°03'0 0.0
2018-Jun-23 06:29N 49°27' E 001°03'0 0.0
2018-Jun-23 05:59N 49°27' E 001°03'0 0.0
2018-Jun-23 05:26N 49°27' E 001°03'0 0.0
2018-Jun-23 04:59N 49°27' E 001°03'0 0.0
2018-Jun-23 04:29N 49°27' E 001°03'0 0.0
2018-Jun-23 03:59N 49°27' E 001°03'0 0.0
2018-Jun-23 03:29N 49°27' E 001°03'0 0.0
2018-Jun-23 02:59N 49°27' E 001°03'0 0.0
2018-Jun-23 02:29N 49°27' E 001°03'0 0.0
2018-Jun-23 01:59N 49°27' E 001°03'0 0.0
2018-Jun-23 01:29N 49°27' E 001°03'0 0.0
2018-Jun-23 00:59N 49°27' E 001°03'0 0.0
2018-Jun-23 00:29N 49°27' E 001°03'0 0.0
2018-Jun-22 23:59N 49°27' E 001°03'0 0.0
2018-Jun-22 23:29N 49°27' E 001°03'0 0.0
2018-Jun-22 22:59N 49°27' E 001°03'0 0.0
2018-Jun-22 22:29N 49°27' E 001°03'0 0.0
2018-Jun-22 21:59N 49°27' E 001°03'0 0.0
2018-Jun-22 21:29N 49°27' E 001°03'0 0.0
2018-Jun-22 20:47N 49°27' E 001°03'0 0.0
2018-Jun-22 20:29N 49°27' E 001°03'0 0.0
2018-Jun-22 19:59N 49°27' E 001°03'0 0.0
2018-Jun-22 19:26N 49°27' E 001°03'0 0.0
2018-Jun-22 18:59N 49°27' E 001°03'0 0.0
2018-Jun-22 18:29N 49°27' E 001°03'0 0.0
2018-Jun-22 17:59N 49°27' E 001°03'0 0.0
2018-Jun-22 17:23N 49°27' E 001°03'0 0.0
2018-Jun-22 16:59N 49°27' E 001°03'0 0.0
2018-Jun-22 16:29N 49°27' E 001°03'0 0.0
2018-Jun-22 15:59N 49°27' E 001°03'0 0.0
2018-Jun-22 15:29N 49°27' E 001°03'0 0.0
2018-Jun-22 14:59N 49°27' E 001°03'0 0.0
2018-Jun-22 14:26N 49°27' E 001°03'0 0.0
2018-Jun-22 13:59N 49°27' E 001°03'0 0.0
2018-Jun-22 13:29N 49°27' E 001°03'0 0.0
2018-Jun-22 12:59N 49°27' E 001°03'0 0.0
2018-Jun-22 12:29N 49°27' E 001°03'0 0.0
2018-Jun-22 11:59N 49°27' E 001°03'0 0.0
2018-Jun-22 11:29N 49°27' E 001°03'0 0.0
2018-Jun-22 10:53N 49°27' E 001°03'0 0.0
2018-Jun-22 10:29N 49°27' E 001°03'0 0.0
2018-Jun-22 09:59N 49°27' E 001°03'0 0.0
2018-Jun-22 09:29N 49°27' E 001°03'0 0.0
2018-Jun-22 08:59N 49°27' E 001°03'0 0.0
2018-Jun-22 08:29N 49°27' E 001°03'0 0.0
2018-Jun-22 07:59N 49°27' E 001°03'0 0.0
2018-Jun-22 07:26N 49°27' E 001°03'0 0.0
2018-Jun-22 06:59N 49°27' E 001°03'0 0.0
2018-Jun-22 06:23N 49°27' E 001°03'0 0.0
2018-Jun-22 05:59N 49°27' E 001°03'0 0.0
2018-Jun-22 05:29N 49°27' E 001°03'0 0.0
2018-Jun-22 04:59N 49°27' E 001°03'0 0.0
2018-Jun-22 04:29N 49°27' E 001°03'0 0.0
2018-Jun-22 03:59N 49°27' E 001°03'0 0.0
2018-Jun-22 03:29N 49°27' E 001°03'0 0.0
2018-Jun-22 02:59N 49°27' E 001°03'0 0.0
2018-Jun-22 02:23N 49°27' E 001°03'0 0.0
2018-Jun-22 01:59N 49°27' E 001°03'0 0.0
2018-Jun-22 01:29N 49°27' E 001°03'0 0.0
2018-Jun-22 00:53N 49°27' E 001°03'0 0.0
2018-Jun-22 00:29N 49°27' E 001°03'0 0.0
2018-Jun-21 23:59N 49°27' E 001°03'0 0.0
2018-Jun-21 23:29N 49°27' E 001°03'0 0.0
2018-Jun-21 22:59N 49°27' E 001°03'0 0.0
2018-Jun-21 22:29N 49°27' E 001°03'0 0.0
2018-Jun-21 21:59N 49°27' E 001°03'0 0.0
2018-Jun-21 21:29N 49°27' E 001°03'0 0.0
2018-Jun-21 20:59N 49°27' E 001°03'0 0.0
2018-Jun-21 20:29N 49°27' E 001°03'0 0.0
2018-Jun-21 19:59N 49°27' E 001°03'0 0.0
2018-Jun-21 19:23N 49°27' E 001°03'0 0.0
2018-Jun-21 18:53N 49°27' E 001°03'0 0.0
2018-Jun-21 18:26N 49°27' E 001°03'0 0.0
2018-Jun-21 17:59N 49°27' E 001°03'0 0.0
2018-Jun-21 17:29N 49°27' E 001°03'0 0.0
2018-Jun-21 16:59N 49°27' E 001°03'0 0.0
2018-Jun-21 16:29N 49°27' E 001°03'0 0.0
2018-Jun-21 15:59N 49°27' E 001°03'0 0.0
2018-Jun-21 15:29N 49°27' E 001°03'0 0.0
2018-Jun-21 14:59N 49°27' E 001°03'0 0.0
2018-Jun-21 14:29N 49°27' E 001°03'0 0.0
2018-Jun-21 13:59N 49°27' E 001°03'0 0.0
2018-Jun-21 13:29N 49°27' E 001°03'0 0.0
2018-Jun-21 12:59N 49°27' E 001°03'0 0.0
2018-Jun-21 12:29N 49°27' E 001°03'0 0.0
2018-Jun-21 11:59N 49°27' E 001°03'0 0.0
2018-Jun-21 11:29N 49°27' E 001°03'0 0.0
2018-Jun-21 10:59N 49°27' E 001°03'0 0.0
2018-Jun-21 10:29N 49°27' E 001°03'0 0.0
2018-Jun-21 09:59N 49°27' E 001°03'0 0.0
2018-Jun-21 09:29N 49°27' E 001°03'0 0.0
2018-Jun-21 08:59N 49°27' E 001°03'0 0.0
2018-Jun-21 08:29N 49°27' E 001°03'0 0.0
2018-Jun-21 07:59N 49°27' E 001°03'0 0.0
2018-Jun-21 07:29N 49°27' E 001°03'0 0.0
2018-Jun-21 06:59N 49°27' E 001°03'0 0.0
2018-Jun-21 06:29N 49°27' E 001°03'0 0.0
2018-Jun-21 05:59N 49°27' E 001°03'0 0.4
2018-Jun-21 05:30N 49°27' E 001°03'5 9.7
2018-Jun-21 05:00N 49°22' E 000°60'3 6.9
2018-Jun-21 04:30N 49°24' E 000°55'510.9
2018-Jun-21 04:01N 49°29' E 000°55'510.1
2018-Jun-21 03:30N 49°24' E 000°52'4 7.3
2018-Jun-21 03:01N 49°27' E 000°49'510.7
2018-Jun-21 02:30N 49°31' E 000°44'510.4
2018-Jun-21 02:00N 49°27' E 000°39'5 9.5
2018-Jun-21 01:30N 49°28' E 000°32'510.0
2018-Jun-21 01:00N 49°27' E 000°25'611.7
2018-Jun-21 00:30N 49°26' E 000°16'510.6
2018-Jun-21 00:00N 49°26' E 000°08'5 9.9
2018-Jun-20 23:30N 49°27' E 000°00'3 5.7
2018-Jun-20 23:00N 49°28' W 000°04'1 2.3
2018-Jun-20 22:30N 49°28' W 000°06'0 0.0
2018-Jun-20 22:00N 49°28' W 000°06'0 0.0
2018-Jun-20 21:30N 49°28' W 000°06'0 0.0
2018-Jun-20 21:00N 49°28' W 000°06'0 0.0
2018-Jun-20 20:30N 49°28' W 000°06'0 0.0
2018-Jun-20 20:00N 49°28' W 000°06'0 0.0
2018-Jun-20 19:30N 49°28' W 000°06'0 0.0
2018-Jun-20 19:00N 49°28' W 000°06'2 3.4
2018-Jun-20 18:31N 49°28' W 000°08'4 9.0
2018-Jun-20 18:01N 49°30' W 000°14'5 9.4
2018-Jun-20 17:30N 49°32' W 000°21'5 9.6
2018-Jun-20 17:00N 49°34' W 000°27'5 9.8
2018-Jun-20 16:31N 49°37' W 000°34'510.2
2018-Jun-20 16:01N 49°39' W 000°41'510.8
2018-Jun-20 15:30N 49°41' W 000°49'611.1
2018-Jun-20 15:00N 49°43' W 000°56'611.8
2018-Jun-20 14:28N 49°46' W 001°05'612.7
2018-Jun-20 14:00N 49°48' W 001°14'713.3
2018-Jun-20 13:30N 49°51' W 001°24'813.3
2018-Jun-20 12:54N 49°53' W 001°36'813.2
2018-Jun-20 12:16N 49°55' W 001°48'612.7
2018-Jun-20 11:49N 49°56' W 001°57'2111.0
2018-Jun-20 09:52N 49°52' W 002°29'9 9.6
2018-Jun-20 08:57N 49°49' W 002°42'4 9.3
2018-Jun-20 08:30N 49°48' W 002°49'14 8.6
2018-Jun-20 06:53N 49°40' W 003°06'3 8.4
2018-Jun-20 06:28N 49°38' W 003°11'13 8.5
2018-Jun-20 04:53N 49°30' W 003°27'63 9.3
2018-Jun-19 22:09N 48°52' W 004°44'310.8
2018-Jun-19 21:52N 48°51' W 004°48'410.8
2018-Jun-19 21:31N 48°48' W 004°52'611.0
2018-Jun-19 21:01N 48°45' W 004°59'611.2
2018-Jun-19 20:30N 48°42' W 005°06'611.5
2018-Jun-19 20:01N 48°38' W 005°13'611.5
2018-Jun-19 19:31N 48°34' W 005°19'611.1
2018-Jun-19 18:58N 48°29' W 005°24'4 9.3
2018-Jun-19 18:31N 48°27' W 005°19'11 9.7
2018-Jun-19 17:22N 48°19' W 005°07'3 9.5
2018-Jun-19 17:01N 48°17' W 005°03'5 8.9
2018-Jun-19 16:30N 48°14' W 004°58'4 8.4
2018-Jun-19 16:00N 48°15' W 004°52'5 9.3
2018-Jun-19 15:30N 48°17' W 004°45'5 9.5
2018-Jun-19 15:01N 48°19' W 004°39'510.0
2018-Jun-19 14:30N 48°21' W 004°32'3 6.0
2018-Jun-19 14:01N 48°23' W 004°29'0 0.0
2018-Jun-19 13:27N 48°23' W 004°29'0 0.0
2018-Jun-19 13:00N 48°23' W 004°29'0 0.0
2018-Jun-19 12:30N 48°23' W 004°29'0 0.0
2018-Jun-19 12:00N 48°23' W 004°29'0 0.0
2018-Jun-19 11:30N 48°23' W 004°29'0 0.0
2018-Jun-19 11:00N 48°23' W 004°29'0 0.0
2018-Jun-19 10:30N 48°23' W 004°29'0 0.0
2018-Jun-19 10:00N 48°23' W 004°29'0 0.0
2018-Jun-19 09:30N 48°23' W 004°29'0 0.0
2018-Jun-19 09:00N 48°23' W 004°29'0 0.0
2018-Jun-19 08:30N 48°23' W 004°29'0 0.0
2018-Jun-19 08:00N 48°23' W 004°29'0 0.0
2018-Jun-19 07:30N 48°23' W 004°29'0 0.0
2018-Jun-19 07:00N 48°23' W 004°29'0 0.0
2018-Jun-19 06:30N 48°23' W 004°29'0 0.0
2018-Jun-19 06:00N 48°23' W 004°29'0 0.0
2018-Jun-19 05:30N 48°23' W 004°29'0 0.0
2018-Jun-19 05:00N 48°23' W 004°29'0 0.0
2018-Jun-19 04:30N 48°23' W 004°29'0 0.0
2018-Jun-19 04:00N 48°23' W 004°29'0 0.0
2018-Jun-19 03:30N 48°23' W 004°29'0 0.0
2018-Jun-19 03:00N 48°23' W 004°29'0 0.0
2018-Jun-19 02:30N 48°23' W 004°29'0 0.0
2018-Jun-19 02:00N 48°23' W 004°29'0 0.0
2018-Jun-19 01:30N 48°23' W 004°29'0 0.0
2018-Jun-19 01:00N 48°23' W 004°29'0 0.0
2018-Jun-19 00:30N 48°23' W 004°29'0 0.0
2018-Jun-19 00:00N 48°23' W 004°29'0 0.0
2018-Jun-18 23:30N 48°23' W 004°29'0 0.0
2018-Jun-18 23:00N 48°23' W 004°29'0 0.0
2018-Jun-18 22:27N 48°23' W 004°29'0 0.0
2018-Jun-18 22:00N 48°23' W 004°29'0 0.0
2018-Jun-18 21:30N 48°23' W 004°29'0 0.0
2018-Jun-18 21:00N 48°23' W 004°29'0 0.0
2018-Jun-18 20:30N 48°23' W 004°29'0 0.0
2018-Jun-18 20:00N 48°23' W 004°29'0 0.0
2018-Jun-18 19:30N 48°23' W 004°29'0 0.0
2018-Jun-18 19:00N 48°23' W 004°29'0 0.0
2018-Jun-18 18:30N 48°23' W 004°29'0 0.0
2018-Jun-18 18:00N 48°23' W 004°29'0 0.0
2018-Jun-18 17:27N 48°23' W 004°29'0 0.0
2018-Jun-18 17:00N 48°23' W 004°29'0 0.0
2018-Jun-18 16:30N 48°23' W 004°29'0 0.0
2018-Jun-18 16:00N 48°23' W 004°29'0 0.0
2018-Jun-18 15:30N 48°23' W 004°29'0 0.0
2018-Jun-18 15:00N 48°23' W 004°29'0 0.0
2018-Jun-18 14:27N 48°23' W 004°29'0 0.0
2018-Jun-18 14:00N 48°23' W 004°29'0 0.0
2018-Jun-18 13:30N 48°23' W 004°29'0 0.0
2018-Jun-18 13:00N 48°23' W 004°29'0 0.0
2018-Jun-18 12:30N 48°23' W 004°29'0 0.0
2018-Jun-18 12:00N 48°23' W 004°29'0 0.0
2018-Jun-18 11:30N 48°23' W 004°29'0 0.0
2018-Jun-18 11:00N 48°23' W 004°29'0 0.0
2018-Jun-18 10:30N 48°23' W 004°29'0 0.0
2018-Jun-18 10:00N 48°23' W 004°29'0 0.0
2018-Jun-18 09:30N 48°23' W 004°29'0 0.0
2018-Jun-18 09:00N 48°23' W 004°29'0 0.0
2018-Jun-18 08:27N 48°23' W 004°29'0 0.0
2018-Jun-18 07:57N 48°23' W 004°29'0 0.0
2018-Jun-18 07:30N 48°23' W 004°29'0 0.0
2018-Jun-18 07:00N 48°23' W 004°29'0 0.0
2018-Jun-18 06:18N 48°23' W 004°29'0 0.0
2018-Jun-18 05:57N 48°23' W 004°29'0 0.0
2018-Jun-18 05:21N 48°23' W 004°29'0 0.0
2018-Jun-18 04:57N 48°23' W 004°29'0 0.0
2018-Jun-18 04:30N 48°23' W 004°29'0 0.0
2018-Jun-18 03:06N 48°23' W 004°29'0 0.0
2018-Jun-18 03:00N 48°23' W 004°29'0 0.0
2018-Jun-18 02:30N 48°23' W 004°29'0 0.0
2018-Jun-18 02:00N 48°23' W 004°29'0 0.0
2018-Jun-18 01:30N 48°23' W 004°29'0 0.0
2018-Jun-18 00:57N 48°23' W 004°29'0 0.0
2018-Jun-18 00:24N 48°23' W 004°29'0 0.0
2018-Jun-18 00:00N 48°23' W 004°29'0 0.0
2018-Jun-17 23:30N 48°23' W 004°29'0 0.0
2018-Jun-17 23:00N 48°23' W 004°29'0 0.0
2018-Jun-17 22:30N 48°23' W 004°29'0 0.0
2018-Jun-17 22:00N 48°23' W 004°29'0 0.0
2018-Jun-17 21:30N 48°23' W 004°29'0 0.0
2018-Jun-17 21:00N 48°23' W 004°29'0 0.0
2018-Jun-17 20:30N 48°23' W 004°29'0 0.0
2018-Jun-17 20:00N 48°23' W 004°29'0 0.0
2018-Jun-17 19:30N 48°23' W 004°29'0 0.0
2018-Jun-17 19:00N 48°23' W 004°29'0 0.0
2018-Jun-17 18:30N 48°23' W 004°29'0 0.0
2018-Jun-17 18:00N 48°23' W 004°29'0 0.0
2018-Jun-17 17:27N 48°23' W 004°29'0 0.0
2018-Jun-17 16:57N 48°23' W 004°29'0 0.0
2018-Jun-17 16:30N 48°23' W 004°29'0 0.0
2018-Jun-17 16:00N 48°23' W 004°29'0 0.0
2018-Jun-17 15:27N 48°23' W 004°29'0 0.0
2018-Jun-17 15:00N 48°23' W 004°29'0 0.0
2018-Jun-17 14:24N 48°23' W 004°29'0 0.0
2018-Jun-17 14:00N 48°23' W 004°29'0 0.0
2018-Jun-17 13:27N 48°23' W 004°29'0 0.0
2018-Jun-17 12:57N 48°23' W 004°29'0 0.0
2018-Jun-17 12:30N 48°23' W 004°29'0 0.0
2018-Jun-17 12:00N 48°23' W 004°29'0 0.0
2018-Jun-17 11:30N 48°23' W 004°29'0 0.0
2018-Jun-17 11:00N 48°23' W 004°29'0 0.0
2018-Jun-17 10:30N 48°23' W 004°29'0 0.0
2018-Jun-17 10:00N 48°23' W 004°29'0 0.0
2018-Jun-17 09:30N 48°23' W 004°29'0 0.0
2018-Jun-17 09:00N 48°23' W 004°29'0 0.0
2018-Jun-17 08:30N 48°23' W 004°29'0 0.0
2018-Jun-17 07:57N 48°23' W 004°29'0 0.0
2018-Jun-17 07:30N 48°23' W 004°29'0 0.0
2018-Jun-17 07:00N 48°23' W 004°29'0 0.0
2018-Jun-17 06:30N 48°23' W 004°29'0 0.0
2018-Jun-17 06:00N 48°23' W 004°29'0 0.0
2018-Jun-17 05:30N 48°23' W 004°29'0 0.0
2018-Jun-17 05:00N 48°23' W 004°29'0 0.0
2018-Jun-17 04:30N 48°23' W 004°29'0 0.0
2018-Jun-17 04:00N 48°23' W 004°29'0 0.0
2018-Jun-17 03:30N 48°23' W 004°29'0 0.0
2018-Jun-17 02:54N 48°23' W 004°29'0 0.0
2018-Jun-17 02:30N 48°23' W 004°29'0 0.0
2018-Jun-17 02:00N 48°23' W 004°29'0 0.0
2018-Jun-17 01:30N 48°23' W 004°29'0 0.0
2018-Jun-17 01:00N 48°23' W 004°29'0 0.0
2018-Jun-17 00:30N 48°23' W 004°29'0 0.0
2018-Jun-17 00:00N 48°23' W 004°29'0 0.0
2018-Jun-16 23:30N 48°23' W 004°29'0 0.0
2018-Jun-16 23:00N 48°23' W 004°29'0 0.0
2018-Jun-16 22:30N 48°23' W 004°29'0 0.0
2018-Jun-16 22:00N 48°23' W 004°29'0 0.0
2018-Jun-16 21:30N 48°23' W 004°29'0 0.0
2018-Jun-16 21:00N 48°23' W 004°29'0 0.0
2018-Jun-16 20:30N 48°23' W 004°29'0 0.0
2018-Jun-16 20:00N 48°23' W 004°29'0 0.0
2018-Jun-16 19:30N 48°23' W 004°29'0 0.0
2018-Jun-16 19:00N 48°23' W 004°29'0 0.0
2018-Jun-16 18:30N 48°23' W 004°29'0 0.0
2018-Jun-16 18:00N 48°23' W 004°29'0 0.0
2018-Jun-16 17:30N 48°23' W 004°29'0 0.0
2018-Jun-16 17:00N 48°23' W 004°29'0 0.0
2018-Jun-16 16:30N 48°23' W 004°29'0 0.0
2018-Jun-16 16:00N 48°23' W 004°29'0 0.0
2018-Jun-16 15:30N 48°23' W 004°29'0 0.0
2018-Jun-16 15:00N 48°23' W 004°29'0 0.0
2018-Jun-16 14:30N 48°23' W 004°29'0 0.0
2018-Jun-16 14:00N 48°23' W 004°29'0 0.0
2018-Jun-16 13:30N 48°23' W 004°29'0 0.0
2018-Jun-16 13:00N 48°23' W 004°29'0 0.0
2018-Jun-16 12:30N 48°23' W 004°29'0 0.0
2018-Jun-16 12:00N 48°23' W 004°29'0 0.0
2018-Jun-16 11:30N 48°23' W 004°29'0 0.0
2018-Jun-16 11:00N 48°23' W 004°29'0 0.0
2018-Jun-16 10:30N 48°23' W 004°29'0 0.0
2018-Jun-16 09:54N 48°23' W 004°29'0 0.0
2018-Jun-16 09:30N 48°23' W 004°29'0 0.0
2018-Jun-16 09:00N 48°23' W 004°29'0 0.0
2018-Jun-16 08:30N 48°23' W 004°29'0 0.0
2018-Jun-16 08:00N 48°23' W 004°29'0 0.0
2018-Jun-16 07:27N 48°23' W 004°29'0 0.0
2018-Jun-16 07:00N 48°23' W 004°29'0 0.0
2018-Jun-16 06:30N 48°23' W 004°29'0 0.0
2018-Jun-16 06:00N 48°23' W 004°29'0 0.0
2018-Jun-16 05:30N 48°23' W 004°29'0 0.0
2018-Jun-16 05:00N 48°23' W 004°29'0 0.0
2018-Jun-16 04:30N 48°23' W 004°29'0 0.0
2018-Jun-16 04:00N 48°23' W 004°29'0 0.0
2018-Jun-16 03:30N 48°23' W 004°29'0 0.0
2018-Jun-16 03:00N 48°23' W 004°29'0 0.0
2018-Jun-16 02:30N 48°23' W 004°29'0 0.0
2018-Jun-16 02:00N 48°23' W 004°29'0 0.0
2018-Jun-16 01:30N 48°23' W 004°29'0 0.0
2018-Jun-16 01:00N 48°23' W 004°29'0 0.0
2018-Jun-16 00:30N 48°23' W 004°29'0 0.0
2018-Jun-16 00:00N 48°23' W 004°29'0 0.0
2018-Jun-15 23:30N 48°23' W 004°29'0 0.0
2018-Jun-15 23:00N 48°23' W 004°29'0 0.0
2018-Jun-15 22:30N 48°23' W 004°29'0 0.0
2018-Jun-15 22:00N 48°23' W 004°29'0 0.0
2018-Jun-15 21:30N 48°23' W 004°29'0 0.0
2018-Jun-15 21:00N 48°23' W 004°29'0 0.0
2018-Jun-15 20:30N 48°23' W 004°29'0 0.0
2018-Jun-15 20:00N 48°23' W 004°29'0 0.0
2018-Jun-15 19:30N 48°23' W 004°29'0 0.0
2018-Jun-15 19:00N 48°23' W 004°29'0 0.0
2018-Jun-15 18:30N 48°23' W 004°29'0 0.0
2018-Jun-15 18:00N 48°23' W 004°29'0 0.0
2018-Jun-15 17:30N 48°23' W 004°29'0 0.0
2018-Jun-15 17:00N 48°23' W 004°29'0 0.0
2018-Jun-15 16:30N 48°23' W 004°29'0 0.0
2018-Jun-15 16:00N 48°23' W 004°29'0 0.0
2018-Jun-15 15:30N 48°23' W 004°29'0 0.0
2018-Jun-15 14:57N 48°23' W 004°29'0 0.0
2018-Jun-15 14:30N 48°23' W 004°29'0 0.0
2018-Jun-15 14:00N 48°23' W 004°29'0 0.0
2018-Jun-15 13:30N 48°23' W 004°29'0 0.0
2018-Jun-15 13:00N 48°23' W 004°29'0 0.0
2018-Jun-15 12:30N 48°23' W 004°29'0 0.0
2018-Jun-15 12:00N 48°23' W 004°29'0 0.0
2018-Jun-15 11:30N 48°23' W 004°29'1 1.7
2018-Jun-15 11:00N 48°22' W 004°28'4 7.9
2018-Jun-15 10:30N 48°21' W 004°33'4 8.3
2018-Jun-15 10:00N 48°19' W 004°39'2 3.3
2018-Jun-15 09:31N 48°17' W 004°40'0 0.3
2018-Jun-15 08:59N 48°17' W 004°40'0 0.0
2018-Jun-15 08:29N 48°17' W 004°40'0 0.1
2018-Jun-15 07:59N 48°17' W 004°40'0 0.0
2018-Jun-15 07:29N 48°17' W 004°40'0 0.1
2018-Jun-15 06:59N 48°17' W 004°40'0 0.1
2018-Jun-15 06:29N 48°17' W 004°40'0 0.2
2018-Jun-15 05:59N 48°17' W 004°40'0 0.0
2018-Jun-15 05:29N 48°17' W 004°40'0 0.1
2018-Jun-15 04:59N 48°17' W 004°40'0 0.0
2018-Jun-15 04:29N 48°17' W 004°40'0 0.0
2018-Jun-15 03:59N 48°17' W 004°40'0 0.0
2018-Jun-15 03:29N 48°17' W 004°40'0 0.1
2018-Jun-15 02:59N 48°17' W 004°40'0 0.0
2018-Jun-15 02:29N 48°17' W 004°40'0 0.1
2018-Jun-15 01:59N 48°17' W 004°40'0 0.0
2018-Jun-15 01:29N 48°17' W 004°40'0 0.0
2018-Jun-15 00:59N 48°17' W 004°40'0 0.0
2018-Jun-15 00:29N 48°17' W 004°40'0 0.0
2018-Jun-14 23:59N 48°17' W 004°40'0 0.0
2018-Jun-14 23:29N 48°17' W 004°40'0 0.0
2018-Jun-14 22:59N 48°17' W 004°40'  
Track history (hours):
 
Tides and Currents Weather Stations Pressure Air Temp Water Temp Dewpoint Dewpoint Depression Visibility Wind Speed Wind Dir Waves Ship Positions

Maremka

Last reported at 2018-Jun-24 22:30 UTC. Time now 2018-Jun-24 22:37 UTC.
Position N 51°21' E 004°17'.

Length 83 m; draft 5 m.

Type: Ship. MMSI: 205688000.

Date/timePositionNaut miles runAvg speedWind from/ knotsBaromVisibWave heightAir tempDewpointWater temp
2018-Jun-24 22:30N 51°21' E 004°17'0 0.0
2018-Jun-24 22:00N 51°21' E 004°17'2 3.6
2018-Jun-24 21:30N 51°21' E 004°14'3 7.0
2018-Jun-24 21:00N 51°23' E 004°09'5 9.3
2018-Jun-24 20:30N 51°24' E 004°02'3 5.9
2018-Jun-24 20:00N 51°25' E 003°58'510.0
2018-Jun-24 19:30N 51°21' E 003°52'5 9.6
2018-Jun-24 19:00N 51°22' E 003°45'5 9.7
2018-Jun-24 18:30N 51°25' E 003°38'4 7.7
2018-Jun-24 18:00N 51°25' E 003°32'4 8.6
2018-Jun-24 17:30N 51°25' E 003°25'4 7.9
2018-Jun-24 17:00N 51°24' E 003°19'4 7.1
2018-Jun-24 16:30N 51°23' E 003°14'4 7.2
2018-Jun-24 16:00N 51°22' E 003°08'4 7.3
2018-Jun-24 15:30N 51°22' E 003°02'4 7.5
2018-Jun-24 15:00N 51°21' E 002°56'4 8.0
2018-Jun-24 14:30N 51°22' E 002°50'4 7.5
2018-Jun-24 13:59N 51°22' E 002°44'3 6.6
2018-Jun-24 13:29N 51°22' E 002°38'3 6.2
2018-Jun-24 13:00N 51°22' E 002°34'3 5.8
2018-Jun-24 12:29N 51°22' E 002°29'3 6.0
2018-Jun-24 12:00N 51°21' E 002°25'4 6.5
2018-Jun-24 11:28N 51°19' E 002°20'4 9.0
2018-Jun-24 11:00N 51°17' E 002°14'510.5
2018-Jun-24 10:30N 51°14' E 002°07'510.5
2018-Jun-24 10:00N 51°12' E 001°60'510.7
2018-Jun-24 09:30N 51°09' E 001°52'510.9
2018-Jun-24 09:00N 51°06' E 001°45'611.1
2018-Jun-24 08:30N 51°02' E 001°40'611.0
2018-Jun-24 08:00N 50°57' E 001°34'510.7
2018-Jun-24 07:30N 50°53' E 001°29'510.1
2018-Jun-24 07:00N 50°48' E 001°27'5 9.5
2018-Jun-24 06:30N 50°44' E 001°24'5 9.3
2018-Jun-24 06:00N 50°40' E 001°19'5 9.4
2018-Jun-24 05:30N 50°37' E 001°14'5 9.2
2018-Jun-24 05:00N 50°34' E 001°09'4 8.9
2018-Jun-24 04:30N 50°30' E 001°04'4 8.6
2018-Jun-24 04:00N 50°28' E 000°59'4 8.6
2018-Jun-24 03:30N 50°26' E 000°53'4 8.6
2018-Jun-24 03:00N 50°25' E 000°46'4 8.4
2018-Jun-24 02:30N 50°24' E 000°40'4 8.2
2018-Jun-24 02:00N 50°23' E 000°34'6 8.0
2018-Jun-24 01:12N 50°21' E 000°24'1 7.8
2018-Jun-24 01:00N 50°21' E 000°22'4 7.8
2018-Jun-24 00:30N 50°20' E 000°16'4 7.8
2018-Jun-24 00:00N 50°19' E 000°10'4 7.7
2018-Jun-23 23:30N 50°17' E 000°04'4 7.9
2018-Jun-23 23:00N 50°14' E 000°00'4 8.1
2018-Jun-23 22:30N 50°11' W 000°04'4 8.2
2018-Jun-23 22:00N 50°08' W 000°07'4 8.5
2018-Jun-23 21:30N 50°04' W 000°10'4 8.7
2018-Jun-23 21:00N 49°60' W 000°12'4 8.8
2018-Jun-23 20:30N 49°55' W 000°14'4 9.0
2018-Jun-23 20:00N 49°51' W 000°17'5 9.1
2018-Jun-23 19:30N 49°47' W 000°21'5 9.3
2018-Jun-23 19:00N 49°43' W 000°23'4 8.8
2018-Jun-23 18:30N 49°39' W 000°23'4 8.8
2018-Jun-23 18:00N 49°34' W 000°22'4 8.1
2018-Jun-23 17:30N 49°33' W 000°17'4 8.3
2018-Jun-23 17:00N 49°31' W 000°11'4 8.6
2018-Jun-23 16:30N 49°29' W 000°05'4 8.7
2018-Jun-23 16:00N 49°27' E 000°01'4 7.6
2018-Jun-23 15:30N 49°26' E 000°07'4 7.3
2018-Jun-23 15:00N 49°26' E 000°12'4 8.7
2018-Jun-23 14:30N 49°26' E 000°19'510.3
2018-Jun-23 14:00N 49°28' E 000°26'4 8.6
2018-Jun-23 13:30N 49°27' E 000°33'5 9.0
2018-Jun-23 13:00N 49°28' E 000°40'5 9.3
2018-Jun-23 12:30N 49°31' E 000°45'510.1
2018-Jun-23 12:00N 49°27' E 000°49'4 7.3
2018-Jun-23 11:31N 49°24' E 000°52'510.1
2018-Jun-23 11:00N 49°29' E 000°53'4 8.1
2018-Jun-23 10:30N 49°25' E 000°56'4 8.7
2018-Jun-23 10:01N 49°21' E 000°56'4 7.7
2018-Jun-23 09:30N 49°24' E 001°01'3 6.8
2018-Jun-23 09:00N 49°27' E 001°03'0 0.0
2018-Jun-23 08:29N 49°27' E 001°03'0 0.0
2018-Jun-23 07:59N 49°27' E 001°03'0 0.0
2018-Jun-23 07:29N 49°27' E 001°03'0 0.0
2018-Jun-23 06:59N 49°27' E 001°03'0 0.0
2018-Jun-23 06:29N 49°27' E 001°03'0 0.0
2018-Jun-23 05:59N 49°27' E 001°03'0 0.0
2018-Jun-23 05:26N 49°27' E 001°03'0 0.0
2018-Jun-23 04:59N 49°27' E 001°03'0 0.0
2018-Jun-23 04:29N 49°27' E 001°03'0 0.0
2018-Jun-23 03:59N 49°27' E 001°03'0 0.0
2018-Jun-23 03:29N 49°27' E 001°03'0 0.0
2018-Jun-23 02:59N 49°27' E 001°03'0 0.0
2018-Jun-23 02:29N 49°27' E 001°03'0 0.0
2018-Jun-23 01:59N 49°27' E 001°03'0 0.0
2018-Jun-23 01:29N 49°27' E 001°03'0 0.0
2018-Jun-23 00:59N 49°27' E 001°03'0 0.0
2018-Jun-23 00:29N 49°27' E 001°03'0 0.0
2018-Jun-22 23:59N 49°27' E 001°03'0 0.0
2018-Jun-22 23:29N 49°27' E 001°03'0 0.0
2018-Jun-22 22:59N 49°27' E 001°03'0 0.0
2018-Jun-22 22:29N 49°27' E 001°03'0 0.0
2018-Jun-22 21:59N 49°27' E 001°03'0 0.0
2018-Jun-22 21:29N 49°27' E 001°03'0 0.0
2018-Jun-22 20:47N 49°27' E 001°03'0 0.0
2018-Jun-22 20:29N 49°27' E 001°03'0 0.0
2018-Jun-22 19:59N 49°27' E 001°03'0 0.0
2018-Jun-22 19:26N 49°27' E 001°03'0 0.0
2018-Jun-22 18:59N 49°27' E 001°03'0 0.0
2018-Jun-22 18:29N 49°27' E 001°03'0 0.0
2018-Jun-22 17:59N 49°27' E 001°03'0 0.0
2018-Jun-22 17:23N 49°27' E 001°03'0 0.0
2018-Jun-22 16:59N 49°27' E 001°03'0 0.0
2018-Jun-22 16:29N 49°27' E 001°03'0 0.0
2018-Jun-22 15:59N 49°27' E 001°03'0 0.0
2018-Jun-22 15:29N 49°27' E 001°03'0 0.0
2018-Jun-22 14:59N 49°27' E 001°03'0 0.0
2018-Jun-22 14:26N 49°27' E 001°03'0 0.0
2018-Jun-22 13:59N 49°27' E 001°03'0 0.0
2018-Jun-22 13:29N 49°27' E 001°03'0 0.0
2018-Jun-22 12:59N 49°27' E 001°03'0 0.0
2018-Jun-22 12:29N 49°27' E 001°03'0 0.0
2018-Jun-22 11:59N 49°27' E 001°03'0 0.0
2018-Jun-22 11:29N 49°27' E 001°03'0 0.0
2018-Jun-22 10:53N 49°27' E 001°03'0 0.0
2018-Jun-22 10:29N 49°27' E 001°03'0 0.0
2018-Jun-22 09:59N 49°27' E 001°03'0 0.0
2018-Jun-22 09:29N 49°27' E 001°03'0 0.0
2018-Jun-22 08:59N 49°27' E 001°03'0 0.0
2018-Jun-22 08:29N 49°27' E 001°03'0 0.0
2018-Jun-22 07:59N 49°27' E 001°03'0 0.0
2018-Jun-22 07:26N 49°27' E 001°03'0 0.0
2018-Jun-22 06:59N 49°27' E 001°03'0 0.0
2018-Jun-22 06:23N 49°27' E 001°03'0 0.0
2018-Jun-22 05:59N 49°27' E 001°03'0 0.0
2018-Jun-22 05:29N 49°27' E 001°03'0 0.0
2018-Jun-22 04:59N 49°27' E 001°03'0 0.0
2018-Jun-22 04:29N 49°27' E 001°03'0 0.0
2018-Jun-22 03:59N 49°27' E 001°03'0 0.0
2018-Jun-22 03:29N 49°27' E 001°03'0 0.0
2018-Jun-22 02:59N 49°27' E 001°03'0 0.0
2018-Jun-22 02:23N 49°27' E 001°03'0 0.0
2018-Jun-22 01:59N 49°27' E 001°03'0 0.0
2018-Jun-22 01:29N 49°27' E 001°03'0 0.0
2018-Jun-22 00:53N 49°27' E 001°03'0 0.0
2018-Jun-22 00:29N 49°27' E 001°03'0 0.0
2018-Jun-21 23:59N 49°27' E 001°03'0 0.0
2018-Jun-21 23:29N 49°27' E 001°03'0 0.0
2018-Jun-21 22:59N 49°27' E 001°03'0 0.0
2018-Jun-21 22:29N 49°27' E 001°03'0 0.0
2018-Jun-21 21:59N 49°27' E 001°03'0 0.0
2018-Jun-21 21:29N 49°27' E 001°03'0 0.0
2018-Jun-21 20:59N 49°27' E 001°03'0 0.0
2018-Jun-21 20:29N 49°27' E 001°03'0 0.0
2018-Jun-21 19:59N 49°27' E 001°03'0 0.0
2018-Jun-21 19:23N 49°27' E 001°03'0 0.0
2018-Jun-21 18:53N 49°27' E 001°03'0 0.0
2018-Jun-21 18:26N 49°27' E 001°03'0 0.0
2018-Jun-21 17:59N 49°27' E 001°03'0 0.0
2018-Jun-21 17:29N 49°27' E 001°03'0 0.0
2018-Jun-21 16:59N 49°27' E 001°03'0 0.0
2018-Jun-21 16:29N 49°27' E 001°03'0 0.0
2018-Jun-21 15:59N 49°27' E 001°03'0 0.0
2018-Jun-21 15:29N 49°27' E 001°03'0 0.0
2018-Jun-21 14:59N 49°27' E 001°03'0 0.0
2018-Jun-21 14:29N 49°27' E 001°03'0 0.0
2018-Jun-21 13:59N 49°27' E 001°03'0 0.0
2018-Jun-21 13:29N 49°27' E 001°03'0 0.0
2018-Jun-21 12:59N 49°27' E 001°03'0 0.0
2018-Jun-21 12:29N 49°27' E 001°03'0 0.0
2018-Jun-21 11:59N 49°27' E 001°03'0 0.0
2018-Jun-21 11:29N 49°27' E 001°03'0 0.0
2018-Jun-21 10:59N 49°27' E 001°03'0 0.0
2018-Jun-21 10:29N 49°27' E 001°03'0 0.0
2018-Jun-21 09:59N 49°27' E 001°03'0 0.0
2018-Jun-21 09:29N 49°27' E 001°03'0 0.0
2018-Jun-21 08:59N 49°27' E 001°03'0 0.0
2018-Jun-21 08:29N 49°27' E 001°03'0 0.0
2018-Jun-21 07:59N 49°27' E 001°03'0 0.0
2018-Jun-21 07:29N 49°27' E 001°03'0 0.0
2018-Jun-21 06:59N 49°27' E 001°03'0 0.0
2018-Jun-21 06:29N 49°27' E 001°03'0 0.0
2018-Jun-21 05:59N 49°27' E 001°03'0 0.4
2018-Jun-21 05:30N 49°27' E 001°03'5 9.7
2018-Jun-21 05:00N 49°22' E 000°60'3 6.9
2018-Jun-21 04:30N 49°24' E 000°55'510.9
2018-Jun-21 04:01N 49°29' E 000°55'510.1
2018-Jun-21 03:30N 49°24' E 000°52'4 7.3
2018-Jun-21 03:01N 49°27' E 000°49'510.7
2018-Jun-21 02:30N 49°31' E 000°44'510.4
2018-Jun-21 02:00N 49°27' E 000°39'5 9.5
2018-Jun-21 01:30N 49°28' E 000°32'510.0
2018-Jun-21 01:00N 49°27' E 000°25'611.7
2018-Jun-21 00:30N 49°26' E 000°16'510.6
2018-Jun-21 00:00N 49°26' E 000°08'5 9.9
2018-Jun-20 23:30N 49°27' E 000°00'3 5.7
2018-Jun-20 23:00N 49°28' W 000°04'1 2.3
2018-Jun-20 22:30N 49°28' W 000°06'0 0.0
2018-Jun-20 22:00N 49°28' W 000°06'0 0.0
2018-Jun-20 21:30N 49°28' W 000°06'0 0.0
2018-Jun-20 21:00N 49°28' W 000°06'0 0.0
2018-Jun-20 20:30N 49°28' W 000°06'0 0.0
2018-Jun-20 20:00N 49°28' W 000°06'0 0.0
2018-Jun-20 19:30N 49°28' W 000°06'0 0.0
2018-Jun-20 19:00N 49°28' W 000°06'2 3.4
2018-Jun-20 18:31N 49°28' W 000°08'4 9.0
2018-Jun-20 18:01N 49°30' W 000°14'5 9.4
2018-Jun-20 17:30N 49°32' W 000°21'5 9.6
2018-Jun-20 17:00N 49°34' W 000°27'5 9.8
2018-Jun-20 16:31N 49°37' W 000°34'510.2
2018-Jun-20 16:01N 49°39' W 000°41'510.8
2018-Jun-20 15:30N 49°41' W 000°49'611.1
2018-Jun-20 15:00N 49°43' W 000°56'611.8
2018-Jun-20 14:28N 49°46' W 001°05'612.7
2018-Jun-20 14:00N 49°48' W 001°14'713.3
2018-Jun-20 13:30N 49°51' W 001°24'813.3
2018-Jun-20 12:54N 49°53' W 001°36'813.2
2018-Jun-20 12:16N 49°55' W 001°48'612.7
2018-Jun-20 11:49N 49°56' W 001°57'2111.0
2018-Jun-20 09:52N 49°52' W 002°29'9 9.6
2018-Jun-20 08:57N 49°49' W 002°42'4 9.3
2018-Jun-20 08:30N 49°48' W 002°49'14 8.6
2018-Jun-20 06:53N 49°40' W 003°06'3 8.4
2018-Jun-20 06:28N 49°38' W 003°11'13 8.5
2018-Jun-20 04:53N 49°30' W 003°27'63 9.3
2018-Jun-19 22:09N 48°52' W 004°44'310.8
2018-Jun-19 21:52N 48°51' W 004°48'410.8
2018-Jun-19 21:31N 48°48' W 004°52'611.0
2018-Jun-19 21:01N 48°45' W 004°59'611.2
2018-Jun-19 20:30N 48°42' W 005°06'611.5
2018-Jun-19 20:01N 48°38' W 005°13'611.5
2018-Jun-19 19:31N 48°34' W 005°19'611.1
2018-Jun-19 18:58N 48°29' W 005°24'4 9.3
2018-Jun-19 18:31N 48°27' W 005°19'11 9.7
2018-Jun-19 17:22N 48°19' W 005°07'3 9.5
2018-Jun-19 17:01N 48°17' W 005°03'5 8.9
2018-Jun-19 16:30N 48°14' W 004°58'4 8.4
2018-Jun-19 16:00N 48°15' W 004°52'5 9.3
2018-Jun-19 15:30N 48°17' W 004°45'5 9.5
2018-Jun-19 15:01N 48°19' W 004°39'510.0
2018-Jun-19 14:30N 48°21' W 004°32'3 6.0
2018-Jun-19 14:01N 48°23' W 004°29'0 0.0
2018-Jun-19 13:27N 48°23' W 004°29'0 0.0
2018-Jun-19 13:00N 48°23' W 004°29'0 0.0
2018-Jun-19 12:30N 48°23' W 004°29'0 0.0
2018-Jun-19 12:00N 48°23' W 004°29'0 0.0
2018-Jun-19 11:30N 48°23' W 004°29'0 0.0
2018-Jun-19 11:00N 48°23' W 004°29'0 0.0
2018-Jun-19 10:30N 48°23' W 004°29'0 0.0
2018-Jun-19 10:00N 48°23' W 004°29'0 0.0
2018-Jun-19 09:30N 48°23' W 004°29'0 0.0
2018-Jun-19 09:00N 48°23' W 004°29'0 0.0
2018-Jun-19 08:30N 48°23' W 004°29'0 0.0
2018-Jun-19 08:00N 48°23' W 004°29'0 0.0
2018-Jun-19 07:30N 48°23' W 004°29'0 0.0
2018-Jun-19 07:00N 48°23' W 004°29'0 0.0
2018-Jun-19 06:30N 48°23' W 004°29'0 0.0
2018-Jun-19 06:00N 48°23' W 004°29'0 0.0
2018-Jun-19 05:30N 48°23' W 004°29'0 0.0
2018-Jun-19 05:00N 48°23' W 004°29'0 0.0
2018-Jun-19 04:30N 48°23' W 004°29'0 0.0
2018-Jun-19 04:00N 48°23' W 004°29'0 0.0
2018-Jun-19 03:30N 48°23' W 004°29'0 0.0
2018-Jun-19 03:00N 48°23' W 004°29'0 0.0
2018-Jun-19 02:30N 48°23' W 004°29'0 0.0
2018-Jun-19 02:00N 48°23' W 004°29'0 0.0
2018-Jun-19 01:30N 48°23' W 004°29'0 0.0
2018-Jun-19 01:00N 48°23' W 004°29'0 0.0
2018-Jun-19 00:30N 48°23' W 004°29'0 0.0
2018-Jun-19 00:00N 48°23' W 004°29'0 0.0
2018-Jun-18 23:30N 48°23' W 004°29'0 0.0
2018-Jun-18 23:00N 48°23' W 004°29'0 0.0
2018-Jun-18 22:27N 48°23' W 004°29'0 0.0
2018-Jun-18 22:00N 48°23' W 004°29'0 0.0
2018-Jun-18 21:30N 48°23' W 004°29'0 0.0
2018-Jun-18 21:00N 48°23' W 004°29'0 0.0
2018-Jun-18 20:30N 48°23' W 004°29'0 0.0
2018-Jun-18 20:00N 48°23' W 004°29'0 0.0
2018-Jun-18 19:30N 48°23' W 004°29'0 0.0
2018-Jun-18 19:00N 48°23' W 004°29'0 0.0
2018-Jun-18 18:30N 48°23' W 004°29'0 0.0
2018-Jun-18 18:00N 48°23' W 004°29'0 0.0
2018-Jun-18 17:27N 48°23' W 004°29'0 0.0
2018-Jun-18 17:00N 48°23' W 004°29'0 0.0
2018-Jun-18 16:30N 48°23' W 004°29'0 0.0
2018-Jun-18 16:00N 48°23' W 004°29'0 0.0
2018-Jun-18 15:30N 48°23' W 004°29'0 0.0
2018-Jun-18 15:00N 48°23' W 004°29'0 0.0
2018-Jun-18 14:27N 48°23' W 004°29'0 0.0
2018-Jun-18 14:00N 48°23' W 004°29'0 0.0
2018-Jun-18 13:30N 48°23' W 004°29'0 0.0
2018-Jun-18 13:00N 48°23' W 004°29'0 0.0
2018-Jun-18 12:30N 48°23' W 004°29'0 0.0
2018-Jun-18 12:00N 48°23' W 004°29'0 0.0
2018-Jun-18 11:30N 48°23' W 004°29'0 0.0
2018-Jun-18 11:00N 48°23' W 004°29'0 0.0
2018-Jun-18 10:30N 48°23' W 004°29'0 0.0
2018-Jun-18 10:00N 48°23' W 004°29'0 0.0
2018-Jun-18 09:30N 48°23' W 004°29'0 0.0
2018-Jun-18 09:00N 48°23' W 004°29'0 0.0
2018-Jun-18 08:27N 48°23' W 004°29'0 0.0
2018-Jun-18 07:57N 48°23' W 004°29'0 0.0
2018-Jun-18 07:30N 48°23' W 004°29'0 0.0
2018-Jun-18 07:00N 48°23' W 004°29'0 0.0
2018-Jun-18 06:18N 48°23' W 004°29'0 0.0
2018-Jun-18 05:57N 48°23' W 004°29'0 0.0
2018-Jun-18 05:21N 48°23' W 004°29'0 0.0
2018-Jun-18 04:57N 48°23' W 004°29'0 0.0
2018-Jun-18 04:30N 48°23' W 004°29'0 0.0
2018-Jun-18 03:06N 48°23' W 004°29'0 0.0
2018-Jun-18 03:00N 48°23' W 004°29'0 0.0
2018-Jun-18 02:30N 48°23' W 004°29'0 0.0
2018-Jun-18 02:00N 48°23' W 004°29'0 0.0
2018-Jun-18 01:30N 48°23' W 004°29'0 0.0
2018-Jun-18 00:57N 48°23' W 004°29'0 0.0
2018-Jun-18 00:24N 48°23' W 004°29'0 0.0
2018-Jun-18 00:00N 48°23' W 004°29'0 0.0
2018-Jun-17 23:30N 48°23' W 004°29'0 0.0
2018-Jun-17 23:00N 48°23' W 004°29'0 0.0
2018-Jun-17 22:30N 48°23' W 004°29'0 0.0
2018-Jun-17 22:00N 48°23' W 004°29'0 0.0
2018-Jun-17 21:30N 48°23' W 004°29'0 0.0
2018-Jun-17 21:00N 48°23' W 004°29'0 0.0
2018-Jun-17 20:30N 48°23' W 004°29'0 0.0
2018-Jun-17 20:00N 48°23' W 004°29'0 0.0
2018-Jun-17 19:30N 48°23' W 004°29'0 0.0
2018-Jun-17 19:00N 48°23' W 004°29'0 0.0
2018-Jun-17 18:30N 48°23' W 004°29'0 0.0
2018-Jun-17 18:00N 48°23' W 004°29'0 0.0
2018-Jun-17 17:27N 48°23' W 004°29'0 0.0
2018-Jun-17 16:57N 48°23' W 004°29'0 0.0
2018-Jun-17 16:30N 48°23' W 004°29'0 0.0
2018-Jun-17 16:00N 48°23' W 004°29'0 0.0
2018-Jun-17 15:27N 48°23' W 004°29'0 0.0
2018-Jun-17 15:00N 48°23' W 004°29'0 0.0
2018-Jun-17 14:24N 48°23' W 004°29'0 0.0
2018-Jun-17 14:00N 48°23' W 004°29'0 0.0
2018-Jun-17 13:27N 48°23' W 004°29'0 0.0
2018-Jun-17 12:57N 48°23' W 004°29'0 0.0
2018-Jun-17 12:30N 48°23' W 004°29'0 0.0
2018-Jun-17 12:00N 48°23' W 004°29'0 0.0
2018-Jun-17 11:30N 48°23' W 004°29'0 0.0
2018-Jun-17 11:00N 48°23' W 004°29'0 0.0
2018-Jun-17 10:30N 48°23' W 004°29'0 0.0
2018-Jun-17 10:00N 48°23' W 004°29'0 0.0
2018-Jun-17 09:30N 48°23' W 004°29'0 0.0
2018-Jun-17 09:00N 48°23' W 004°29'0 0.0
2018-Jun-17 08:30N 48°23' W 004°29'0 0.0
2018-Jun-17 07:57N 48°23' W 004°29'0 0.0
2018-Jun-17 07:30N 48°23' W 004°29'0 0.0
2018-Jun-17 07:00N 48°23' W 004°29'0 0.0
2018-Jun-17 06:30N 48°23' W 004°29'0 0.0
2018-Jun-17 06:00N 48°23' W 004°29'0 0.0
2018-Jun-17 05:30N 48°23' W 004°29'0 0.0
2018-Jun-17 05:00N 48°23' W 004°29'0 0.0
2018-Jun-17 04:30N 48°23' W 004°29'0 0.0
2018-Jun-17 04:00N 48°23' W 004°29'0 0.0
2018-Jun-17 03:30N 48°23' W 004°29'0 0.0
2018-Jun-17 02:54N 48°23' W 004°29'0 0.0
2018-Jun-17 02:30N 48°23' W 004°29'0 0.0
2018-Jun-17 02:00N 48°23' W 004°29'0 0.0
2018-Jun-17 01:30N 48°23' W 004°29'0 0.0
2018-Jun-17 01:00N 48°23' W 004°29'0 0.0
2018-Jun-17 00:30N 48°23' W 004°29'0 0.0
2018-Jun-17 00:00N 48°23' W 004°29'0 0.0
2018-Jun-16 23:30N 48°23' W 004°29'0 0.0
2018-Jun-16 23:00N 48°23' W 004°29'0 0.0
2018-Jun-16 22:30N 48°23' W 004°29'0 0.0
2018-Jun-16 22:00N 48°23' W 004°29'0 0.0
2018-Jun-16 21:30N 48°23' W 004°29'0 0.0
2018-Jun-16 21:00N 48°23' W 004°29'0 0.0
2018-Jun-16 20:30N 48°23' W 004°29'0 0.0
2018-Jun-16 20:00N 48°23' W 004°29'0 0.0
2018-Jun-16 19:30N 48°23' W 004°29'0 0.0
2018-Jun-16 19:00N 48°23' W 004°29'0 0.0
2018-Jun-16 18:30N 48°23' W 004°29'0 0.0
2018-Jun-16 18:00N 48°23' W 004°29'0 0.0
2018-Jun-16 17:30N 48°23' W 004°29'0 0.0
2018-Jun-16 17:00N 48°23' W 004°29'0 0.0
2018-Jun-16 16:30N 48°23' W 004°29'0 0.0
2018-Jun-16 16:00N 48°23' W 004°29'0 0.0
2018-Jun-16 15:30N 48°23' W 004°29'0 0.0
2018-Jun-16 15:00N 48°23' W 004°29'0 0.0
2018-Jun-16 14:30N 48°23' W 004°29'0 0.0
2018-Jun-16 14:00N 48°23' W 004°29'0 0.0
2018-Jun-16 13:30N 48°23' W 004°29'0 0.0
2018-Jun-16 13:00N 48°23' W 004°29'0 0.0
2018-Jun-16 12:30N 48°23' W 004°29'0 0.0
2018-Jun-16 12:00N 48°23' W 004°29'0 0.0
2018-Jun-16 11:30N 48°23' W 004°29'0 0.0
2018-Jun-16 11:00N 48°23' W 004°29'0 0.0
2018-Jun-16 10:30N 48°23' W 004°29'0 0.0
2018-Jun-16 09:54N 48°23' W 004°29'0 0.0
2018-Jun-16 09:30N 48°23' W 004°29'0 0.0
2018-Jun-16 09:00N 48°23' W 004°29'0 0.0
2018-Jun-16 08:30N 48°23' W 004°29'0 0.0
2018-Jun-16 08:00N 48°23' W 004°29'0 0.0
2018-Jun-16 07:27N 48°23' W 004°29'0 0.0
2018-Jun-16 07:00N 48°23' W 004°29'0 0.0
2018-Jun-16 06:30N 48°23' W 004°29'0 0.0
2018-Jun-16 06:00N 48°23' W 004°29'0 0.0
2018-Jun-16 05:30N 48°23' W 004°29'0 0.0
2018-Jun-16 05:00N 48°23' W 004°29'0 0.0
2018-Jun-16 04:30N 48°23' W 004°29'0 0.0
2018-Jun-16 04:00N 48°23' W 004°29'0 0.0
2018-Jun-16 03:30N 48°23' W 004°29'0 0.0
2018-Jun-16 03:00N 48°23' W 004°29'0 0.0
2018-Jun-16 02:30N 48°23' W 004°29'0 0.0
2018-Jun-16 02:00N 48°23' W 004°29'0 0.0
2018-Jun-16 01:30N 48°23' W 004°29'0 0.0
2018-Jun-16 01:00N 48°23' W 004°29'0 0.0
2018-Jun-16 00:30N 48°23' W 004°29'0 0.0
2018-Jun-16 00:00N 48°23' W 004°29'0 0.0
2018-Jun-15 23:30N 48°23' W 004°29'0 0.0
2018-Jun-15 23:00N 48°23' W 004°29'0 0.0
2018-Jun-15 22:30N 48°23' W 004°29'0 0.0
2018-Jun-15 22:00N 48°23' W 004°29'0 0.0
2018-Jun-15 21:30N 48°23' W 004°29'0 0.0
2018-Jun-15 21:00N 48°23' W 004°29'0 0.0
2018-Jun-15 20:30N 48°23' W 004°29'0 0.0
2018-Jun-15 20:00N 48°23' W 004°29'0 0.0
2018-Jun-15 19:30N 48°23' W 004°29'0 0.0
2018-Jun-15 19:00N 48°23' W 004°29'0 0.0
2018-Jun-15 18:30N 48°23' W 004°29'0 0.0
2018-Jun-15 18:00N 48°23' W 004°29'0 0.0
2018-Jun-15 17:30N 48°23' W 004°29'0 0.0
2018-Jun-15 17:00N 48°23' W 004°29'0 0.0
2018-Jun-15 16:30N 48°23' W 004°29'0 0.0
2018-Jun-15 16:00N 48°23' W 004°29'0 0.0
2018-Jun-15 15:30N 48°23' W 004°29'0 0.0
2018-Jun-15 14:57N 48°23' W 004°29'0 0.0
2018-Jun-15 14:30N 48°23' W 004°29'0 0.0
2018-Jun-15 14:00N 48°23' W 004°29'0 0.0
2018-Jun-15 13:30N 48°23' W 004°29'0 0.0
2018-Jun-15 13:00N 48°23' W 004°29'0 0.0
2018-Jun-15 12:30N 48°23' W 004°29'0 0.0
2018-Jun-15 12:00N 48°23' W 004°29'0 0.0
2018-Jun-15 11:30N 48°23' W 004°29'1 1.7
2018-Jun-15 11:00N 48°22' W 004°28'4 7.9
2018-Jun-15 10:30N 48°21' W 004°33'4 8.3
2018-Jun-15 10:00N 48°19' W 004°39'2 3.3
2018-Jun-15 09:31N 48°17' W 004°40'0 0.3
2018-Jun-15 08:59N 48°17' W 004°40'0 0.0
2018-Jun-15 08:29N 48°17' W 004°40'0 0.1
2018-Jun-15 07:59N 48°17' W 004°40'0 0.0
2018-Jun-15 07:29N 48°17' W 004°40'0 0.1
2018-Jun-15 06:59N 48°17' W 004°40'0 0.1
2018-Jun-15 06:29N 48°17' W 004°40'0 0.2
2018-Jun-15 05:59N 48°17' W 004°40'0 0.0
2018-Jun-15 05:29N 48°17' W 004°40'0 0.1
2018-Jun-15 04:59N 48°17' W 004°40'0 0.0
2018-Jun-15 04:29N 48°17' W 004°40'0 0.0
2018-Jun-15 03:59N 48°17' W 004°40'0 0.0
2018-Jun-15 03:29N 48°17' W 004°40'0 0.1
2018-Jun-15 02:59N 48°17' W 004°40'0 0.0
2018-Jun-15 02:29N 48°17' W 004°40'0 0.1
2018-Jun-15 01:59N 48°17' W 004°40'0 0.0
2018-Jun-15 01:29N 48°17' W 004°40'0 0.0
2018-Jun-15 00:59N 48°17' W 004°40'0 0.0
2018-Jun-15 00:29N 48°17' W 004°40'0 0.0
2018-Jun-14 23:59N 48°17' W 004°40'0 0.0
2018-Jun-14 23:29N 48°17' W 004°40'0 0.0
2018-Jun-14 22:59N 48°17' W 004°40'  

Dump ship's entire track history